Time;durP1;ratioP1;P1;durP2;ratioP2;P2;SDS_P1;SDS_P2;PMS_P1;PMS_P2;Temp;Humidity;BMP_temperature;BMP_pressure;BME280_temperature;BME280_humidity;BME280_pressure;Samples;Min_cycle;Max_cycle;Signal;HPM_P1;HPM_P2
2022/06/23 00:01:05;;;;;;;;;;;25.90;67.20;;;;;;5074188;28;20352;-70
2022/06/23 00:03:32;;;;;;;;;;;25.90;67.40;;;;;;5074056;28;19915;-67
2022/06/23 00:05:59;;;;;;;;;;;25.70;67.90;;;;;;5074109;28;19909;-69
2022/06/23 00:08:25;;;;;;;;;;;25.50;68.50;;;;;;5073995;28;20349;-71
2022/06/23 00:10:53;;;;;;;;;;;25.20;69.70;;;;;;5076336;28;20411;-71
2022/06/23 00:13:25;;;;;;;;;;;25.10;70.50;;;;;;5085444;28;19996;-70
2022/06/23 00:15:52;;;;;;;;;;;25.00;71.00;;;;;;5073862;28;19970;-69
2022/06/23 00:18:17;;;;;;;;;;;25.00;71.30;;;;;;5073805;28;19967;-70
2022/06/23 00:20:47;;;;;;;;;;;24.90;71.50;;;;;;5073823;28;19920;-69
2022/06/23 00:23:27;;;;;;;;;;;25.00;71.10;;;;;;5073820;28;19919;-69
2022/06/23 00:25:58;;;;;;;;;;;25.00;70.90;;;;;;5073735;28;19912;-68
2022/06/23 00:28:32;;;;;;;;;;;24.90;71.40;;;;;;5073604;28;19908;-71
2022/06/23 00:30:59;;;;;;;;;;;24.90;71.10;;;;;;5073587;28;19909;-69
2022/06/23 00:33:27;;;;;;;;;;;25.10;70.70;;;;;;5073533;28;19920;-69
2022/06/23 00:35:54;;;;;;;;;;;24.90;70.70;;;;;;5073741;28;19909;-69
2022/06/23 00:38:30;;;;;;;;;;;24.70;71.60;;;;;;5073788;28;20011;-69
2022/06/23 00:40:57;;;;;;;;;;;24.60;71.90;;;;;;5073161;28;19939;-70
2022/06/23 00:43:23;;;;;;;;;;;24.70;72.30;;;;;;5073315;28;19908;-66
2022/06/23 00:45:58;;;;;;;;;;;24.90;70.90;;;;;;5082682;28;19908;-69
2022/06/23 00:48:29;;;;;;;;;;;24.90;70.40;;;;;;5076449;28;19924;-70
2022/06/23 00:51:02;;;;;;;;;;;25.00;70.00;;;;;;5073139;28;19913;-70
2022/06/23 00:53:30;;;;;;;;;;;25.00;69.90;;;;;;5072953;28;19920;-70
2022/06/23 00:56:01;;;;;;;;;;;24.90;70.10;;;;;;5073055;28;19917;-68
2022/06/23 00:58:30;;;;;;;;;;;24.60;70.90;;;;;;5072734;28;19913;-65
2022/06/23 01:01:02;;;;;;;;;;;24.50;71.50;;;;;;5072888;28;19916;-70
2022/06/23 01:03:31;;;;;;;;;;;24.50;71.80;;;;;;5072961;28;20007;-67
2022/06/23 01:05:58;;;;;;;;;;;24.40;72.30;;;;;;5072978;28;19962;-65
2022/06/23 01:08:31;;;;;;;;;;;24.30;72.80;;;;;;5072869;28;20381;-70
2022/06/23 01:10:57;;;;;;;;;;;24.40;72.60;;;;;;5072937;28;19909;-70
2022/06/23 01:13:34;;;;;;;;;;;24.40;72.50;;;;;;5073019;28;19985;-70
2022/06/23 01:16:18;;;;;;;;;;;24.50;72.00;;;;;;5072637;28;20017;-69
2022/06/23 01:18:49;;;;;;;;;;;24.50;72.10;;;;;;5072651;28;19912;-67
2022/06/23 01:21:23;;;;;;;;;;;24.50;72.00;;;;;;5072752;28;20287;-70
2022/06/23 01:23:49;;;;;;;;;;;24.50;71.40;;;;;;5072776;28;19909;-66
2022/06/23 01:26:23;;;;;;;;;;;24.50;72.10;;;;;;5072457;28;19919;-69
2022/06/23 01:28:50;;;;;;;;;;;24.40;72.70;;;;;;5072483;28;19916;-70
2022/06/23 01:31:20;;;;;;;;;;;24.40;72.80;;;;;;5072359;28;19908;-69
2022/06/23 01:33:52;;;;;;;;;;;24.30;72.60;;;;;;5072532;28;20284;-70
2022/06/23 01:36:17;;;;;;;;;;;24.40;72.30;;;;;;5072368;28;20054;-68
2022/06/23 01:38:43;;;;;;;;;;;24.20;72.50;;;;;;5072214;28;20415;-67
2022/06/23 01:41:15;;;;;;;;;;;24.20;73.40;;;;;;5072162;28;20021;-70
2022/06/23 01:43:45;;;;;;;;;;;24.20;73.20;;;;;;5072257;28;19909;-71
2022/06/23 01:46:14;;;;;;;;;;;24.20;72.50;;;;;;5084640;28;19919;-70
2022/06/23 01:48:52;;;;;;;;;;;24.00;72.90;;;;;;5073374;28;19978;-71
2022/06/23 01:51:30;;;;;;;;;;;23.90;72.90;;;;;;5072195;28;19908;-69
2022/06/23 01:54:07;;;;;;;;;;;23.90;73.40;;;;;;5071940;28;20007;-71
2022/06/23 01:56:32;;;;;;;;;;;23.90;73.30;;;;;;5072110;28;19916;-70
2022/06/23 01:59:04;;;;;;;;;;;24.00;73.20;;;;;;5070018;28;19912;-71
2022/06/23 02:01:50;;;;;;;;;;;23.90;73.00;;;;;;5072225;28;19920;-69
2022/06/23 02:04:27;;;;;;;;;;;23.90;73.60;;;;;;5072075;28;19987;-72
2022/06/23 02:06:58;;;;;;;;;;;24.00;73.40;;;;;;5072019;28;19912;-69
2022/06/23 02:09:29;;;;;;;;;;;24.00;73.20;;;;;;5072122;28;19909;-70
2022/06/23 02:11:55;;;;;;;;;;;24.10;72.70;;;;;;5071848;28;19915;-69
2022/06/23 02:14:36;;;;;;;;;;;23.90;73.00;;;;;;5072128;28;20275;-69
2022/06/23 02:17:10;;;;;;;;;;;23.80;73.50;;;;;;5071890;28;20453;-71
2022/06/23 02:19:44;;;;;;;;;;;23.70;74.00;;;;;;5071961;28;20280;-72
2022/06/23 02:22:14;;;;;;;;;;;23.60;74.10;;;;;;5071866;28;19939;-71
2022/06/23 02:25:17;;;;;;;;;;;23.50;74.70;;;;;;5072038;28;19909;-69
2022/06/23 02:27:52;;;;;;;;;;;23.60;74.70;;;;;;5067760;28;20371;-72
2022/06/23 02:30:21;;;;;;;;;;;23.60;74.60;;;;;;5069598;28;19909;-70
2022/06/23 02:32:52;;;;;;;;;;;23.60;74.50;;;;;;5069480;28;19908;-72
2022/06/23 02:35:23;;;;;;;;;;;23.60;74.50;;;;;;5069585;28;19912;-71
2022/06/23 02:37:57;;;;;;;;;;;23.60;74.20;;;;;;5069303;28;20415;-67
2022/06/23 02:40:25;;;;;;;;;;;23.60;74.30;;;;;;5069394;28;20525;-70
2022/06/23 02:42:56;;;;;;;;;;;23.60;74.40;;;;;;5069478;28;20315;-69
2022/06/23 02:45:22;;;;;;;;;;;23.60;74.20;;;;;;5069390;28;19958;-69
2022/06/23 02:48:06;;;;;;;;;;;23.70;74.20;;;;;;5069191;28;20327;-68
2022/06/23 02:50:31;;;;;;;;;;;23.70;73.70;;;;;;5069393;28;20283;-69
2022/06/23 02:53:15;;;;;;;;;;;23.70;73.70;;;;;;5069357;28;19909;-69
2022/06/23 02:56:07;;;;;;;;;;;23.50;74.60;;;;;;5069252;28;19908;-70
2022/06/23 02:58:36;;;;;;;;;;;23.40;74.90;;;;;;5039961;28;19912;-70
2022/06/23 03:01:06;;;;;;;;;;;23.40;75.30;;;;;;5071785;28;19925;-69
2022/06/23 03:03:31;;;;;;;;;;;23.50;74.90;;;;;;5070314;28;20057;-68
2022/06/23 03:05:59;;;;;;;;;;;23.50;74.90;;;;;;5071395;28;19991;-70
2022/06/23 03:08:43;;;;;;;;;;;23.40;75.70;;;;;;5071486;28;19913;-70
2022/06/23 03:11:51;;;;;;;;;;;23.40;74.80;;;;;;5074479;28;19913;-69
2022/06/23 03:14:07;;;;;;;;;;;23.40;75.00;;;;;;5074871;28;19909;-68
2022/06/23 03:16:36;;;;;;;;;;;23.40;74.40;;;;;;5075077;28;20241;-70
2022/06/23 03:19:03;;;;;;;;;;;23.50;74.60;;;;;;5074858;28;19924;-70
2022/06/23 03:21:43;;;;;;;;;;;23.50;74.60;;;;;;5074901;28;20436;-70
2022/06/23 03:24:11;;;;;;;;;;;23.50;74.20;;;;;;5074840;28;19916;-70
2022/06/23 03:26:40;;;;;;;;;;;23.70;73.20;;;;;;5074924;28;19915;-66
2022/06/23 03:29:21;;;;;;;;;;;24.00;71.40;;;;;;5074779;28;19909;-69
2022/06/23 03:32:01;;;;;;;;;;;24.10;70.50;;;;;;5074721;28;19908;-68
2022/06/23 03:34:35;;;;;;;;;;;24.00;70.30;;;;;;5074696;28;19993;-67
2022/06/23 03:37:04;;;;;;;;;;;23.90;70.80;;;;;;5074720;28;20383;-70
2022/06/23 03:42:26;;;;;;;;;;;23.60;72.00;;;;;;5074478;28;19981;-67
2022/06/23 03:44:55;;;;;;;;;;;23.50;72.70;;;;;;5075769;28;20314;-68
2022/06/23 03:47:26;;;;;;;;;;;23.50;72.90;;;;;;5086654;28;19917;-67
2022/06/23 03:50:04;;;;;;;;;;;23.50;73.30;;;;;;5074369;28;19924;-70
2022/06/23 03:52:33;;;;;;;;;;;23.50;73.40;;;;;;5074443;28;20010;-70
2022/06/23 03:55:16;;;;;;;;;;;23.40;73.50;;;;;;5074615;28;19940;-69
2022/06/23 03:57:53;;;;;;;;;;;23.40;74.10;;;;;;5074379;28;19923;-70
2022/06/23 04:00:19;;;;;;;;;;;23.40;74.20;;;;;;5074203;28;19921;-68
2022/06/23 04:02:50;;;;;;;;;;;23.30;74.60;;;;;;5074234;28;19938;-70
2022/06/23 04:05:22;;;;;;;;;;;23.30;74.90;;;;;;5074210;28;20395;-72
2022/06/23 04:07:52;;;;;;;;;;;23.30;74.60;;;;;;5074002;28;20435;-69
2022/06/23 04:10:20;;;;;;;;;;;23.50;74.30;;;;;;5074064;28;20360;-69
2022/06/23 04:12:48;;;;;;;;;;;23.50;74.30;;;;;;5074072;28;19919;-69
2022/06/23 04:15:17;;;;;;;;;;;23.60;74.30;;;;;;5074147;28;19909;-71
2022/06/23 04:17:55;;;;;;;;;;;23.60;74.10;;;;;;5073683;28;19909;-69
2022/06/23 04:20:22;;;;;;;;;;;23.70;74.10;;;;;;5074041;28;19981;-71
2022/06/23 04:22:56;;;;;;;;;;;23.80;73.70;;;;;;5073143;28;19908;-69
2022/06/23 04:25:25;;;;;;;;;;;23.80;73.40;;;;;;5073833;28;19965;-71
2022/06/23 04:27:52;;;;;;;;;;;23.90;73.60;;;;;;5073555;28;19908;-71
2022/06/23 04:30:20;;;;;;;;;;;24.00;73.50;;;;;;5073701;28;20375;-71
2022/06/23 04:32:47;;;;;;;;;;;24.00;73.50;;;;;;5073674;28;19920;-66
2022/06/23 04:35:17;;;;;;;;;;;24.00;74.10;;;;;;5073551;28;19915;-69
2022/06/23 04:38:01;;;;;;;;;;;24.20;73.40;;;;;;5073430;28;19912;-68
2022/06/23 04:40:33;;;;;;;;;;;24.20;72.50;;;;;;5073410;28;19916;-69
2022/06/23 04:43:10;;;;;;;;;;;24.40;70.60;;;;;;5073442;28;19912;-69
2022/06/23 04:45:42;;;;;;;;;;;24.40;71.00;;;;;;5080725;28;19912;-71
2022/06/23 04:48:21;;;;;;;;;;;24.40;71.90;;;;;;5078948;28;19987;-68
2022/06/23 04:50:56;;;;;;;;;;;24.40;71.90;;;;;;5072052;28;19915;-68
2022/06/23 04:53:25;;;;;;;;;;;24.50;70.10;;;;;;5073404;28;20340;-70
2022/06/23 04:56:13;;;;;;;;;;;24.50;70.40;;;;;;5073253;28;19912;-71
2022/06/23 04:58:43;;;;;;;;;;;24.50;70.60;;;;;;5073429;28;19920;-69
2022/06/23 05:01:13;;;;;;;;;;;24.60;69.50;;;;;;5073132;28;19985;-69
2022/06/23 05:03:44;;;;;;;;;;;24.70;69.10;;;;;;5072383;28;19912;-67
2022/06/23 05:06:32;;;;;;;;;;;24.70;70.30;;;;;;5073054;28;19909;-65
2022/06/23 05:09:03;;;;;;;;;;;24.70;70.00;;;;;;5072782;28;19950;-67
2022/06/23 05:11:29;;;;;;;;;;;24.60;70.30;;;;;;5072857;28;19915;-71
2022/06/23 05:14:14;;;;;;;;;;;24.60;71.00;;;;;;5072684;28;19909;-69
2022/06/23 05:16:41;;;;;;;;;;;24.60;70.80;;;;;;5072862;28;19915;-68
2022/06/23 05:19:12;;;;;;;;;;;24.60;70.70;;;;;;5072706;28;20280;-69
2022/06/23 05:21:38;;;;;;;;;;;24.80;69.10;;;;;;5074264;28;19900;-72
2022/06/23 05:24:08;;;;;;;;;;;24.80;69.80;;;;;;5073355;28;19935;-67
2022/06/23 05:26:38;;;;;;;;;;;24.90;70.20;;;;;;5072779;28;20336;-71
2022/06/23 05:29:05;;;;;;;;;;;25.00;70.10;;;;;;5071548;28;20286;-68
2022/06/23 05:31:35;;;;;;;;;;;25.10;70.10;;;;;;5072051;28;19909;-69
2022/06/23 05:34:04;;;;;;;;;;;25.30;69.30;;;;;;5071050;28;19994;-67
2022/06/23 05:36:35;;;;;;;;;;;25.50;68.60;;;;;;5072608;28;20328;-67
2022/06/23 05:39:22;;;;;;;;;;;25.90;67.20;;;;;;5072295;28;19944;-68
2022/06/23 05:41:52;;;;;;;;;;;26.40;65.80;;;;;;5072303;28;19999;-72
2022/06/23 05:44:20;;;;;;;;;;;26.90;64.00;;;;;;5072368;28;19979;-73
2022/06/23 05:46:47;;;;;;;;;;;27.30;62.40;;;;;;5086342;28;20351;-75
2022/06/23 05:49:21;;;;;;;;;;;27.60;60.90;;;;;;5072071;28;19930;-73
2022/06/23 05:51:50;;;;;;;;;;;27.90;60.50;;;;;;5071534;28;19916;-71
2022/06/23 05:54:24;;;;;;;;;;;28.20;58.80;;;;;;5071762;28;20371;-73
2022/06/23 05:56:52;;;;;;;;;;;28.40;57.60;;;;;;5071706;28;19912;-72
2022/06/23 05:59:25;;;;;;;;;;;28.70;57.40;;;;;;5071893;28;19909;-66
2022/06/23 06:02:01;;;;;;;;;;;28.90;56.80;;;;;;5071854;28;19924;-65
2022/06/23 06:04:27;;;;;;;;;;;29.10;56.20;;;;;;5071210;28;20402;-66
2022/06/23 06:06:52;;;;;;;;;;;29.30;56.10;;;;;;5070629;28;19948;-66
2022/06/23 06:09:36;;;;;;;;;;;29.50;55.50;;;;;;5070613;28;19948;-67
2022/06/23 06:12:03;;;;;;;;;;;29.60;54.20;;;;;;5073218;28;19912;-65
2022/06/23 06:14:30;;;;;;;;;;;29.70;54.20;;;;;;5071183;28;19915;-67
2022/06/23 06:16:57;;;;;;;;;;;29.80;53.40;;;;;;5071988;28;19916;-64
2022/06/23 06:19:24;;;;;;;;;;;30.00;53.20;;;;;;5071774;28;19916;-64
2022/06/23 06:21:52;;;;;;;;;;;30.10;52.80;;;;;;5072010;28;19962;-68
2022/06/23 06:24:22;;;;;;;;;;;30.20;52.00;;;;;;5071877;28;19962;-65
2022/06/23 06:26:50;;;;;;;;;;;30.40;51.10;;;;;;5071781;28;20591;-65
2022/06/23 06:29:24;;;;;;;;;;;30.50;50.40;;;;;;5071701;28;19961;-65
2022/06/23 06:31:52;;;;;;;;;;;30.60;49.30;;;;;;5071757;28;19957;-64
2022/06/23 06:34:37;;;;;;;;;;;30.70;49.00;;;;;;5071883;28;19913;-67
2022/06/23 06:37:06;;;;;;;;;;;30.70;48.50;;;;;;5071554;28;20328;-63
2022/06/23 06:39:40;;;;;;;;;;;30.90;48.50;;;;;;5072000;28;20279;-67
2022/06/23 06:42:06;;;;;;;;;;;30.90;47.70;;;;;;5071796;28;20340;-65
2022/06/23 06:44:32;;;;;;;;;;;30.90;47.20;;;;;;5072295;28;20031;-65
2022/06/23 06:46:57;;;;;;;;;;;31.00;47.50;;;;;;5089894;28;20261;-67
2022/06/23 06:49:24;;;;;;;;;;;31.10;47.20;;;;;;5075397;28;19925;-64
2022/06/23 06:51:50;;;;;;;;;;;31.20;47.40;;;;;;5075172;28;19985;-64
2022/06/23 06:54:48;;;;;;;;;;;31.30;47.10;;;;;;5075362;28;20344;-65
2022/06/23 06:57:19;;;;;;;;;;;31.40;47.10;;;;;;5051818;28;19913;-65
2022/06/23 06:59:50;;;;;;;;;;;31.50;46.90;;;;;;5077374;28;19999;-64
2022/06/23 07:02:20;;;;;;;;;;;31.60;46.40;;;;;;5077860;28;19962;-67
2022/06/23 07:04:59;;;;;;;;;;;31.60;46.30;;;;;;5077571;28;19912;-66
2022/06/23 07:07:29;;;;;;;;;;;31.70;46.20;;;;;;5077694;28;19913;-68
2022/06/23 07:09:58;;;;;;;;;;;31.70;46.40;;;;;;5092168;28;19931;-65
2022/06/23 07:12:26;;;;;;;;;;;31.80;46.90;;;;;;5094982;28;20380;-63
2022/06/23 07:15:11;;;;;;;;;;;31.80;46.30;;;;;;5080185;28;19928;-64
2022/06/23 07:17:55;;;;;;;;;;;31.80;46.70;;;;;;5074625;28;19959;-64
2022/06/23 07:20:24;;;;;;;;;;;31.80;46.90;;;;;;5074690;28;20393;-65
2022/06/23 07:22:58;;;;;;;;;;;31.80;46.80;;;;;;5080223;28;19915;-64
2022/06/23 07:25:29;;;;;;;;;;;31.80;46.70;;;;;;5084191;28;19923;-63
2022/06/23 07:27:59;;;;;;;;;;;31.80;46.60;;;;;;5078872;28;20430;-66
2022/06/23 07:30:28;;;;;;;;;;;31.70;47.20;;;;;;5073563;28;19970;-63
2022/06/23 07:33:26;;;;;;;;;;;31.40;48.20;;;;;;5071472;28;19908;-62
2022/06/23 07:36:02;;;;;;;;;;;31.10;48.40;;;;;;5059683;28;19912;-63
2022/06/23 07:38:46;;;;;;;;;;;30.60;49.50;;;;;;5077192;28;19908;-62
2022/06/23 07:41:18;;;;;;;;;;;30.40;50.30;;;;;;5074356;28;19924;-67
2022/06/23 07:43:47;;;;;;;;;;;30.10;50.40;;;;;;5074161;28;19912;-68
2022/06/23 07:46:13;;;;;;;;;;;30.00;51.30;;;;;;5075580;28;19991;-66
2022/06/23 07:48:39;;;;;;;;;;;29.80;52.50;;;;;;5076801;28;19924;-70
2022/06/23 07:51:05;;;;;;;;;;;29.80;52.80;;;;;;5074385;28;19909;-73
2022/06/23 07:53:36;;;;;;;;;;;29.80;52.60;;;;;;5074085;28;19912;-70
2022/06/23 07:56:03;;;;;;;;;;;29.90;52.10;;;;;;5076343;28;19912;-68
2022/06/23 07:58:30;;;;;;;;;;;30.10;51.70;;;;;;5074014;28;19908;-71
2022/06/23 08:00:59;;;;;;;;;;;30.30;50.80;;;;;;5073423;28;20027;-69
2022/06/23 08:03:34;;;;;;;;;;;30.40;51.60;;;;;;5074968;28;19916;-68
2022/06/23 08:06:03;;;;;;;;;;;30.30;51.60;;;;;;5077540;28;20401;-69
2022/06/23 08:08:31;;;;;;;;;;;30.10;51.40;;;;;;5074072;28;20367;-70
2022/06/23 08:13:45;;;;;;;;;;;30.20;51.80;;;;;;5075969;28;19935;-68
2022/06/23 08:19:04;;;;;;;;;;;30.00;51.80;;;;;;5072519;28;19915;-68
2022/06/23 08:21:34;;;;;;;;;;;29.90;52.30;;;;;;5072415;28;19922;-69
2022/06/23 08:24:18;;;;;;;;;;;29.80;52.50;;;;;;5074626;28;19916;-68
2022/06/23 08:26:47;;;;;;;;;;;29.70;52.60;;;;;;5072683;28;20431;-66
2022/06/23 08:29:15;;;;;;;;;;;29.70;53.30;;;;;;5072837;28;19919;-69
2022/06/23 08:31:40;;;;;;;;;;;29.80;53.50;;;;;;5072369;28;20015;-71
2022/06/23 08:34:07;;;;;;;;;;;30.00;53.20;;;;;;5084474;28;20339;-69
2022/06/23 08:36:43;;;;;;;;;;;30.10;52.50;;;;;;5077641;28;20026;-70
2022/06/23 08:39:25;;;;;;;;;;;30.20;52.70;;;;;;5072703;28;20011;-72
2022/06/23 08:42:09;;;;;;;;;;;30.30;52.70;;;;;;5072376;28;20015;-70
2022/06/23 08:44:50;;;;;;;;;;;30.40;52.10;;;;;;5072386;28;19970;-67
2022/06/23 08:47:22;;;;;;;;;;;30.50;51.70;;;;;;5077311;28;20288;-75
2022/06/23 08:49:55;;;;;;;;;;;30.60;51.80;;;;;;5082053;28;19921;-70
2022/06/23 08:52:29;;;;;;;;;;;30.70;52.40;;;;;;5072016;28;19912;-70
2022/06/23 08:55:10;;;;;;;;;;;30.80;51.30;;;;;;5071664;28;19912;-72
2022/06/23 08:57:36;;;;;;;;;;;30.90;51.10;;;;;;5071717;28;19909;-68
2022/06/23 09:00:07;;;;;;;;;;;30.90;50.30;;;;;;5071901;28;20010;-71
2022/06/23 09:02:36;;;;;;;;;;;30.70;51.70;;;;;;5078707;28;20015;-69
2022/06/23 09:05:20;;;;;;;;;;;30.60;50.80;;;;;;5075411;28;20114;-69
2022/06/23 09:07:54;;;;;;;;;;;30.60;51.50;;;;;;5071118;28;20372;-74
2022/06/23 09:10:19;;;;;;;;;;;30.50;51.30;;;;;;5072038;28;19924;-68
2022/06/23 09:12:52;;;;;;;;;;;30.50;52.00;;;;;;5071663;28;19915;-69
2022/06/23 09:15:36;;;;;;;;;;;30.60;51.80;;;;;;5070462;28;19916;-71
2022/06/23 09:18:02;;;;;;;;;;;30.70;51.50;;;;;;5086051;28;19916;-72
2022/06/23 09:20:46;;;;;;;;;;;30.80;51.50;;;;;;5079727;28;20355;-76
2022/06/23 09:23:35;;;;;;;;;;;30.70;50.90;;;;;;5076564;28;19920;-77
2022/06/23 09:26:06;;;;;;;;;;;30.70;51.20;;;;;;5072507;28;19913;-72
2022/06/23 09:28:40;;;;;;;;;;;30.70;51.30;;;;;;5072404;28;19919;-73
2022/06/23 09:31:06;;;;;;;;;;;30.70;51.40;;;;;;5072298;28;19915;-74
2022/06/23 09:33:43;;;;;;;;;;;30.70;51.80;;;;;;5071812;28;19920;-72
2022/06/23 09:36:33;;;;;;;;;;;30.70;51.90;;;;;;5090164;28;19908;-71
2022/06/23 09:39:11;;;;;;;;;;;30.60;52.20;;;;;;5091022;28;20355;-72
2022/06/23 09:41:46;;;;;;;;;;;30.60;52.40;;;;;;5091060;28;19916;-67
2022/06/23 09:44:31;;;;;;;;;;;30.70;52.50;;;;;;5091340;28;20291;-69
2022/06/23 09:47:02;;;;;;;;;;;30.60;52.60;;;;;;5087989;28;20425;-73
2022/06/23 09:49:37;;;;;;;;;;;30.60;53.10;;;;;;5090395;28;19955;-73
2022/06/23 09:52:02;;;;;;;;;;;30.60;53.10;;;;;;5091094;28;19923;-70
2022/06/23 09:54:39;;;;;;;;;;;30.60;53.10;;;;;;5091000;28;19908;-65
2022/06/23 09:57:24;;;;;;;;;;;30.50;53.20;;;;;;5090993;28;19915;-72
2022/06/23 09:59:49;;;;;;;;;;;30.40;53.20;;;;;;5090818;28;19913;-70
2022/06/23 10:02:34;;;;;;;;;;;30.30;54.00;;;;;;5091066;28;19908;-69
2022/06/23 10:05:02;;;;;;;;;;;30.20;54.20;;;;;;5090759;28;19916;-70
2022/06/23 10:07:51;;;;;;;;;;;30.10;55.10;;;;;;5076207;28;19995;-71
2022/06/23 10:10:26;;;;;;;;;;;30.00;56.20;;;;;;5071068;28;19913;-72
2022/06/23 10:13:09;;;;;;;;;;;29.90;56.40;;;;;;5072226;28;19913;-63
2022/06/23 10:15:54;;;;;;;;;;;29.90;58.10;;;;;;5072154;28;19908;-68
2022/06/23 10:18:37;;;;;;;;;;;29.90;58.10;;;;;;5072200;28;19962;-68
2022/06/23 10:21:06;;;;;;;;;;;30.00;58.80;;;;;;5075142;28;19924;-71
2022/06/23 10:23:31;;;;;;;;;;;30.00;59.00;;;;;;5076124;28;19966;-71
2022/06/23 10:26:11;;;;;;;;;;;29.90;59.10;;;;;;5075799;28;19912;-71
2022/06/23 10:28:52;;;;;;;;;;;29.90;59.40;;;;;;5075681;28;20352;-73
2022/06/23 10:31:17;;;;;;;;;;;30.00;59.40;;;;;;5075036;28;20507;-67
2022/06/23 10:33:46;;;;;;;;;;;29.90;59.80;;;;;;5074347;28;19999;-72
2022/06/23 10:36:19;;;;;;;;;;;29.90;60.20;;;;;;5074072;28;19920;-63
2022/06/23 10:38:56;;;;;;;;;;;29.80;60.50;;;;;;5074513;28;19908;-67
2022/06/23 10:41:40;;;;;;;;;;;29.80;61.60;;;;;;5074850;28;19963;-64
2022/06/23 10:44:18;;;;;;;;;;;29.70;64.10;;;;;;5088809;28;19915;-68
2022/06/23 10:46:58;;;;;;;;;;;29.70;64.30;;;;;;5074741;28;19962;-67
2022/06/23 10:49:24;;;;;;;;;;;29.60;64.10;;;;;;5074572;28;20233;-65
2022/06/23 10:52:07;;;;;;;;;;;29.60;64.10;;;;;;5089023;28;19908;-70
2022/06/23 10:54:33;;;;;;;;;;;29.70;64.80;;;;;;5074625;28;19965;-68
2022/06/23 10:57:05;;;;;;;;;;;29.70;66.00;;;;;;5087315;28;20364;-67
2022/06/23 10:59:36;;;;;;;;;;;29.70;65.50;;;;;;5094556;28;19912;-67
2022/06/23 11:02:08;;;;;;;;;;;29.70;66.30;;;;;;5082518;28;19920;-70
2022/06/23 11:04:36;;;;;;;;;;;29.60;67.00;;;;;;5088809;28;20054;-69
2022/06/23 11:07:04;;;;;;;;;;;29.50;66.30;;;;;;5074569;28;19913;-63
2022/06/23 11:09:48;;;;;;;;;;;29.60;66.00;;;;;;5091574;28;19951;-68
2022/06/23 11:12:37;;;;;;;;;;;29.60;64.70;;;;;;5082552;28;19932;-69
2022/06/23 11:15:09;;;;;;;;;;;29.50;64.50;;;;;;5081401;28;19963;-64
2022/06/23 11:17:37;;;;;;;;;;;29.60;64.00;;;;;;5094672;28;19914;-67
2022/06/23 11:20:05;;;;;;;;;;;29.60;64.00;;;;;;5079880;28;19920;-63
2022/06/23 11:22:37;;;;;;;;;;;29.70;63.80;;;;;;5082390;28;19919;-63
2022/06/23 11:25:02;;;;;;;;;;;29.70;63.70;;;;;;5078486;28;19965;-65
2022/06/23 11:27:28;;;;;;;;;;;29.70;62.60;;;;;;5083675;28;19913;-66
2022/06/23 11:30:09;;;;;;;;;;;29.80;62.80;;;;;;5090712;28;19919;-68
2022/06/23 11:32:42;;;;;;;;;;;29.80;62.10;;;;;;5094474;28;19958;-66
2022/06/23 11:35:19;;;;;;;;;;;29.90;61.30;;;;;;5088786;28;19912;-66
2022/06/23 11:37:44;;;;;;;;;;;29.90;61.70;;;;;;5094133;28;20302;-71
2022/06/23 11:40:13;;;;;;;;;;;29.80;62.40;;;;;;5094187;28;19919;-69
2022/06/23 11:42:47;;;;;;;;;;;29.90;63.30;;;;;;5093981;28;20010;-67
2022/06/23 11:45:13;;;;;;;;;;;29.90;63.00;;;;;;5093609;28;19916;-69
2022/06/23 11:47:59;;;;;;;;;;;29.80;62.70;;;;;;5093913;28;20027;-67
2022/06/23 11:50:31;;;;;;;;;;;29.80;62.50;;;;;;5077305;28;19920;-68
2022/06/23 11:53:08;;;;;;;;;;;29.80;63.00;;;;;;5087725;28;20003;-71
2022/06/23 11:55:38;;;;;;;;;;;29.80;63.20;;;;;;5073626;28;19912;-69
2022/06/23 11:58:22;;;;;;;;;;;29.80;62.90;;;;;;5087048;28;19915;-64
2022/06/23 12:00:54;;;;;;;;;;;29.70;63.00;;;;;;5073231;28;19932;-63
2022/06/23 12:03:38;;;;;;;;;;;29.70;63.20;;;;;;5073497;28;19912;-62
2022/06/23 12:06:21;;;;;;;;;;;29.70;63.30;;;;;;5085475;28;20287;-62
2022/06/23 12:08:46;;;;;;;;;;;29.70;63.20;;;;;;5093426;28;19981;-63
2022/06/23 12:11:12;;;;;;;;;;;29.70;63.10;;;;;;5093980;28;20434;-60
2022/06/23 12:13:39;;;;;;;;;;;29.70;62.60;;;;;;5075672;28;20317;-62
2022/06/23 12:16:04;;;;;;;;;;;29.70;62.60;;;;;;5083520;28;19916;-61
2022/06/23 12:18:34;;;;;;;;;;;29.70;62.90;;;;;;5093373;28;20354;-64
2022/06/23 12:21:26;;;;;;;;;;;29.70;62.90;;;;;;5093175;28;19920;-63
2022/06/23 12:23:55;;;;;;;;;;;29.70;62.70;;;;;;5071704;28;19996;-63
2022/06/23 12:26:24;;;;;;;;;;;29.70;63.50;;;;;;5083568;28;19914;-62
2022/06/23 12:28:58;;;;;;;;;;;29.80;63.70;;;;;;5075857;28;20485;-64
2022/06/23 12:31:31;;;;;;;;;;;29.80;63.40;;;;;;5072894;28;19912;-63
2022/06/23 12:34:03;;;;;;;;;;;29.70;63.80;;;;;;5072484;28;19915;-64
2022/06/23 12:36:47;;;;;;;;;;;29.70;63.60;;;;;;5082847;28;19908;-63
2022/06/23 12:39:28;;;;;;;;;;;29.60;63.90;;;;;;5083831;28;19912;-60
2022/06/23 12:42:00;;;;;;;;;;;29.60;64.40;;;;;;5070620;28;19935;-61
2022/06/23 12:44:38;;;;;;;;;;;29.70;64.00;;;;;;5081547;28;19909;-60
2022/06/23 12:47:23;;;;;;;;;;;29.70;63.80;;;;;;5084611;28;19913;-61
2022/06/23 12:50:07;;;;;;;;;;;29.80;65.00;;;;;;5071332;28;19939;-61
2022/06/23 12:52:32;;;;;;;;;;;29.70;64.50;;;;;;5071733;28;19916;-63
2022/06/23 12:55:04;;;;;;;;;;;29.70;64.60;;;;;;5071786;28;19951;-65
2022/06/23 12:57:44;;;;;;;;;;;29.60;64.30;;;;;;5071772;28;20359;-64
2022/06/23 13:00:12;;;;;;;;;;;29.60;64.50;;;;;;5077590;28;19982;-63
2022/06/23 13:02:38;;;;;;;;;;;29.60;64.60;;;;;;5073997;28;20370;-62
2022/06/23 13:05:12;;;;;;;;;;;29.50;64.30;;;;;;5071778;28;19915;-62
2022/06/23 13:07:49;;;;;;;;;;;29.40;64.50;;;;;;5085926;28;20261;-60
2022/06/23 13:10:36;;;;;;;;;;;29.40;64.70;;;;;;5090236;28;19908;-63
2022/06/23 13:13:10;;;;;;;;;;;29.40;64.70;;;;;;5086146;28;19908;-60
2022/06/23 13:15:49;;;;;;;;;;;29.40;64.90;;;;;;5072526;28;19939;-61
2022/06/23 13:18:23;;;;;;;;;;;29.40;64.80;;;;;;5072930;28;19916;-65
2022/06/23 13:20:53;;;;;;;;;;;29.40;64.60;;;;;;5072490;28;20339;-63
2022/06/23 13:23:21;;;;;;;;;;;29.40;63.70;;;;;;5072641;28;19917;-62
2022/06/23 13:25:51;;;;;;;;;;;29.40;63.60;;;;;;5071728;28;20277;-61
2022/06/23 13:28:37;;;;;;;;;;;29.30;64.00;;;;;;5075906;28;20006;-61
2022/06/23 13:31:26;;;;;;;;;;;29.30;62.90;;;;;;5092355;28;20430;-62
2022/06/23 13:33:55;;;;;;;;;;;29.30;61.00;;;;;;5064290;28;19912;-64
2022/06/23 13:36:24;;;;;;;;;;;29.30;59.50;;;;;;5072683;28;19909;-65
2022/06/23 13:38:56;;;;;;;;;;;29.30;60.90;;;;;;5071822;28;19912;-63
2022/06/23 13:41:25;;;;;;;;;;;29.40;61.10;;;;;;5072415;28;19932;-63
2022/06/23 13:43:54;;;;;;;;;;;29.50;59.20;;;;;;5072572;28;19912;-64
2022/06/23 13:46:29;;;;;;;;;;;29.50;58.90;;;;;;5084223;28;19919;-61
2022/06/23 13:49:13;;;;;;;;;;;29.50;58.90;;;;;;5085226;28;20002;-63
2022/06/23 13:51:44;;;;;;;;;;;29.50;59.40;;;;;;5072322;28;19909;-64
2022/06/23 13:54:16;;;;;;;;;;;29.60;59.80;;;;;;5071769;28;19919;-63
2022/06/23 13:56:45;;;;;;;;;;;29.60;59.50;;;;;;5072180;28;20287;-62
2022/06/23 13:59:34;;;;;;;;;;;29.60;59.70;;;;;;5072448;28;20017;-63
2022/06/23 14:02:20;;;;;;;;;;;29.60;59.60;;;;;;5067269;28;20429;-61
2022/06/23 14:04:48;;;;;;;;;;;29.70;60.10;;;;;;5067870;28;19917;-63
2022/06/23 14:07:18;;;;;;;;;;;29.70;59.40;;;;;;5071845;28;20348;-64
2022/06/23 14:09:47;;;;;;;;;;;29.60;60.10;;;;;;5071826;28;20346;-64
2022/06/23 14:12:17;;;;;;;;;;;29.60;60.20;;;;;;5071623;28;19923;-65
2022/06/23 14:14:47;;;;;;;;;;;29.60;60.70;;;;;;5072039;28;19912;-65
2022/06/23 14:17:19;;;;;;;;;;;29.60;60.60;;;;;;5072024;28;20522;-64
2022/06/23 14:19:57;;;;;;;;;;;29.60;60.50;;;;;;5077259;28;20276;-63
2022/06/23 14:22:26;;;;;;;;;;;29.50;61.60;;;;;;5074595;28;20253;-62
2022/06/23 14:24:58;;;;;;;;;;;29.50;61.30;;;;;;5070978;28;20616;-63
2022/06/23 14:27:34;;;;;;;;;;;29.50;62.10;;;;;;5070481;28;19913;-62
2022/06/23 14:30:16;;;;;;;;;;;29.50;63.60;;;;;;5070171;28;19951;-63
2022/06/23 14:32:47;;;;;;;;;;;29.40;62.30;;;;;;5070043;28;19947;-63
2022/06/23 14:35:22;;;;;;;;;;;29.40;63.30;;;;;;5070610;28;19925;-63
2022/06/23 14:37:57;;;;;;;;;;;29.40;63.40;;;;;;5072308;28;19927;-63
2022/06/23 14:40:43;;;;;;;;;;;29.30;62.50;;;;;;5086608;28;21385;-63
2022/06/23 14:43:20;;;;;;;;;;;29.40;62.10;;;;;;5071173;28;19916;-63
2022/06/23 14:46:08;;;;;;;;;;;29.30;63.50;;;;;;5083692;28;19912;-63
2022/06/23 14:49:00;;;;;;;;;;;29.20;64.40;;;;;;5070701;28;19960;-63
2022/06/23 14:51:44;;;;;;;;;;;29.20;64.50;;;;;;5086241;28;19920;-61
2022/06/23 14:54:10;;;;;;;;;;;29.30;64.10;;;;;;5091147;28;19919;-64
2022/06/23 14:56:44;;;;;;;;;;;29.30;63.80;;;;;;5073920;28;19908;-63
2022/06/23 14:59:29;;;;;;;;;;;29.30;62.00;;;;;;5071011;28;19916;-62